Time;durP1;ratioP1;P1;durP2;ratioP2;P2;SDS_P1;SDS_P2;PMS_P1;PMS_P2;Temp;Humidity;BMP_temperature;BMP_pressure;BME280_temperature;BME280_humidity;BME280_pressure;Samples;Min_cycle;Max_cycle;Signal;HPM_P1;HPM_P2
2024/01/02 00:01:42;;;;;;;20.67;6.55;;;;;;;;;;4972907;28;20068;-75
2024/01/02 00:04:08;;;;;;;22.20;5.63;;;;;;;;;;4966822;28;20164;-76
2024/01/02 00:06:34;;;;;;;18.52;5.18;;;;;;;;;;4954709;28;20073;-75
2024/01/02 00:09:00;;;;;;;17.33;5.60;;;;;;;;;;4988028;28;20034;-75
2024/01/02 00:11:26;;;;;;;12.95;4.75;;;;;;;;;;4988428;28;20038;-75
2024/01/02 00:13:52;;;;;;;20.30;5.05;;;;;;;;;;4988356;28;20040;-76
2024/01/02 00:16:18;;;;;;;17.80;4.95;;;;;;;;;;4969997;28;20042;-76
2024/01/02 00:18:44;;;;;;;21.60;5.22;;;;;;;;;;4961486;28;20046;-74
2024/01/02 00:21:11;;;;;;;14.70;4.47;;;;;;;;;;4986271;28;20037;-75
2024/01/02 00:23:37;;;;;;;13.95;5.03;;;;;;;;;;4988961;28;20088;-75
2024/01/02 00:26:03;;;;;;;13.77;4.40;;;;;;;;;;4986402;28;20135;-75
2024/01/02 00:28:29;;;;;;;14.25;4.60;;;;;;;;;;4967184;28;20145;-74
2024/01/02 00:30:55;;;;;;;26.25;5.80;;;;;;;;;;4973066;28;20062;-75
2024/01/02 00:33:21;;;;;;;16.65;4.55;;;;;;;;;;4988131;28;20056;-75
2024/01/02 00:35:47;;;;;;;20.52;4.65;;;;;;;;;;4987051;28;20100;-74
2024/01/02 00:38:13;;;;;;;16.77;4.97;;;;;;;;;;4972077;28;20061;-76
2024/01/02 00:40:39;;;;;;;22.40;4.95;;;;;;;;;;4976080;28;20037;-74
2024/01/02 00:43:06;;;;;;;18.35;4.80;;;;;;;;;;4973280;28;20041;-75
2024/01/02 00:45:32;;;;;;;18.25;4.57;;;;;;;;;;4989349;28;20050;-75
2024/01/02 00:47:58;;;;;;;20.30;4.30;;;;;;;;;;4991214;28;20061;-75
2024/01/02 00:50:25;;;;;;;20.13;4.82;;;;;;;;;;4992704;28;20038;-75
2024/01/02 00:52:51;;;;;;;20.70;4.50;;;;;;;;;;4986641;28;20054;-75
2024/01/02 00:55:17;;;;;;;19.17;4.65;;;;;;;;;;4958083;28;20046;-75
2024/01/02 00:57:43;;;;;;;13.82;3.80;;;;;;;;;;4990605;28;20575;-76
2024/01/02 01:00:12;;;;;;;18.13;3.78;;;;;;;;;;4977176;28;20420;-75
2024/01/02 01:02:38;;;;;;;12.02;3.78;;;;;;;;;;4988123;28;20168;-75
2024/01/02 01:05:04;;;;;;;16.90;4.47;;;;;;;;;;4974584;28;20041;-75
2024/01/02 01:07:30;;;;;;;12.48;3.75;;;;;;;;;;4972083;28;20042;-75
2024/01/02 01:09:57;;;;;;;15.45;3.88;;;;;;;;;;4960098;28;20041;-74
2024/01/02 01:12:23;;;;;;;22.02;5.60;;;;;;;;;;4976293;28;20073;-75
2024/01/02 01:14:49;;;;;;;11.85;3.22;;;;;;;;;;4989117;28;20057;-75
2024/01/02 01:17:15;;;;;;;11.05;3.25;;;;;;;;;;4988871;28;20173;-74
2024/01/02 01:19:41;;;;;;;14.48;3.78;;;;;;;;;;4971387;28;20049;-74
2024/01/02 01:22:07;;;;;;;15.48;3.30;;;;;;;;;;4961142;28;20115;-75
2024/01/02 01:24:33;;;;;;;16.50;3.92;;;;;;;;;;4987312;28;20041;-76
2024/01/02 01:26:59;;;;;;;11.88;3.20;;;;;;;;;;4988313;28;20048;-75
2024/01/02 01:29:25;;;;;;;11.30;3.75;;;;;;;;;;4977078;28;20093;-74
2024/01/02 01:31:51;;;;;;;11.23;3.28;;;;;;;;;;4992115;28;20117;-75
2024/01/02 01:34:17;;;;;;;7.32;2.70;;;;;;;;;;4959836;28;20045;-75
2024/01/02 01:36:44;;;;;;;14.43;2.80;;;;;;;;;;4991813;28;20044;-74
2024/01/02 01:39:10;;;;;;;11.48;3.28;;;;;;;;;;4973008;28;20038;-74
2024/01/02 01:41:36;;;;;;;15.35;3.22;;;;;;;;;;4973732;28;20118;-75
2024/01/02 01:44:02;;;;;;;9.40;2.97;;;;;;;;;;4976003;28;20378;-74
2024/01/02 01:46:34;;;;;;;19.70;3.47;;;;;;;;;;4974062;28;20081;-74
2024/01/02 01:49:00;;;;;;;12.20;2.67;;;;;;;;;;4991678;28;20045;-74
2024/01/02 01:51:26;;;;;;;15.10;3.92;;;;;;;;;;4957574;28;20038;-74
2024/01/02 01:53:54;;;;;;;10.57;3.53;;;;;;;;;;4989354;28;20473;-74
2024/01/02 01:56:21;;;;;;;10.95;2.80;;;;;;;;;;4985158;28;20112;-74
2024/01/02 01:58:47;;;;;;;14.57;2.40;;;;;;;;;;4972487;28;20137;-74
2024/01/02 02:01:13;;;;;;;12.02;2.72;;;;;;;;;;5003581;28;20076;-75
2024/01/02 02:03:39;;;;;;;14.30;2.75;;;;;;;;;;4991413;28;20404;-74
2024/01/02 02:06:06;;;;;;;9.88;2.50;;;;;;;;;;4972757;28;20044;-74
2024/01/02 02:08:32;;;;;;;15.32;2.65;;;;;;;;;;4974456;28;20054;-75
2024/01/02 02:10:58;;;;;;;12.35;2.45;;;;;;;;;;4974014;28;20460;-74
2024/01/02 02:13:24;;;;;;;13.75;2.97;;;;;;;;;;4986027;28;20030;-75
2024/01/02 02:15:50;;;;;;;16.35;2.63;;;;;;;;;;4975226;28;20033;-74
2024/01/02 02:18:16;;;;;;;10.88;2.80;;;;;;;;;;4977922;28;20034;-74
2024/01/02 02:20:43;;;;;;;14.85;2.75;;;;;;;;;;4989740;28;20121;-75
2024/01/02 02:23:09;;;;;;;16.42;2.60;;;;;;;;;;4977725;28;20508;-79
2024/01/02 02:25:35;;;;;;;10.23;3.33;;;;;;;;;;4976930;28;20485;-78
2024/01/02 02:28:01;;;;;;;11.25;3.30;;;;;;;;;;4956280;28;20038;-80
2024/01/02 02:30:27;;;;;;;13.45;3.05;;;;;;;;;;4960252;28;20050;-78
2024/01/02 02:32:54;;;;;;;17.73;3.65;;;;;;;;;;4991624;28;20061;-79
2024/01/02 02:35:20;;;;;;;13.80;3.08;;;;;;;;;;4990398;28;20107;-79
2024/01/02 02:37:46;;;;;;;13.70;4.20;;;;;;;;;;4975062;28;20393;-78
2024/01/02 02:40:13;;;;;;;13.50;4.90;;;;;;;;;;4965062;28;20048;-80
2024/01/02 02:42:39;;;;;;;18.45;4.30;;;;;;;;;;4976965;28;20049;-78
2024/01/02 02:45:06;;;;;;;19.23;4.28;;;;;;;;;;4974437;28;20630;-77
2024/01/02 02:47:32;;;;;;;12.27;4.60;;;;;;;;;;4974472;28;20057;-80
2024/01/02 02:49:58;;;;;;;19.60;4.63;;;;;;;;;;4976393;28;20089;-80
2024/01/02 02:52:24;;;;;;;20.70;4.72;;;;;;;;;;4975094;28;20042;-77
2024/01/02 02:54:50;;;;;;;18.70;5.88;;;;;;;;;;4972109;28;20100;-78
2024/01/02 02:57:16;;;;;;;15.82;4.25;;;;;;;;;;4974634;28;20034;-78
2024/01/02 02:59:42;;;;;;;18.38;5.25;;;;;;;;;;4972345;28;20124;-78
2024/01/02 03:02:08;;;;;;;26.63;6.00;;;;;;;;;;4985592;28;20049;-78
2024/01/02 03:04:34;;;;;;;21.35;6.72;;;;;;;;;;4958783;28;20046;-78
2024/01/02 03:07:00;;;;;;;20.77;6.00;;;;;;;;;;4970043;28;20045;-79
2024/01/02 03:09:26;;;;;;;19.80;6.03;;;;;;;;;;4972030;28;20068;-79
2024/01/02 03:11:52;;;;;;;21.00;6.22;;;;;;;;;;4970654;28;20033;-79
2024/01/02 03:14:20;;;;;;;19.88;6.45;;;;;;;;;;4988292;28;20405;-79
2024/01/02 03:16:46;;;;;;;17.08;5.78;;;;;;;;;;4971898;28;20037;-77
2024/01/02 03:19:12;;;;;;;22.02;7.03;;;;;;;;;;4987723;28;20077;-79
2024/01/02 03:21:38;;;;;;;23.45;7.15;;;;;;;;;;4987417;28;20042;-79
2024/01/02 03:24:04;;;;;;;17.95;7.32;;;;;;;;;;4985738;28;20068;-77
2024/01/02 03:26:31;;;;;;;14.98;7.40;;;;;;;;;;4984492;28;20136;-79
2024/01/02 03:28:57;;;;;;;20.42;7.20;;;;;;;;;;5006719;28;20050;-80
2024/01/02 03:31:24;;;;;;;19.90;6.95;;;;;;;;;;4987441;28;20076;-80
2024/01/02 03:33:50;;;;;;;17.27;6.40;;;;;;;;;;4987526;28;20125;-79
2024/01/02 03:36:20;;;;;;;17.13;7.10;;;;;;;;;;4974859;28;20034;-78
2024/01/02 03:38:46;;;;;;;28.77;6.95;;;;;;;;;;4991602;28;20421;-77
2024/01/02 03:41:12;;;;;;;23.08;6.82;;;;;;;;;;4972278;28;20045;-80
2024/01/02 03:43:39;;;;;;;13.05;6.05;;;;;;;;;;4974093;28;20042;-78
2024/01/02 03:46:05;;;;;;;16.45;6.97;;;;;;;;;;4989540;28;20112;-79
2024/01/02 03:48:31;;;;;;;18.90;6.95;;;;;;;;;;4988119;28;20042;-79
2024/01/02 03:50:57;;;;;;;22.75;6.85;;;;;;;;;;4990137;28;20045;-80
2024/01/02 03:53:23;;;;;;;20.05;6.70;;;;;;;;;;4988222;28;20054;-77
2024/01/02 03:55:49;;;;;;;22.10;7.32;;;;;;;;;;4955049;28;20897;-79
2024/01/02 03:58:16;;;;;;;18.90;6.70;;;;;;;;;;4974536;28;20037;-78
2024/01/02 04:00:42;;;;;;;15.82;6.25;;;;;;;;;;4989578;28;20061;-79
2024/01/02 04:03:08;;;;;;;17.60;6.85;;;;;;;;;;4963907;28;20121;-78
2024/01/02 04:05:34;;;;;;;16.27;7.03;;;;;;;;;;4974839;28;20049;-80
2024/01/02 04:08:01;;;;;;;14.73;5.53;;;;;;;;;;4977091;28;21311;-79
2024/01/02 04:10:27;;;;;;;14.38;6.80;;;;;;;;;;4952585;28;20038;-79
2024/01/02 04:12:53;;;;;;;11.38;5.72;;;;;;;;;;4977541;28;20038;-78
2024/01/02 04:15:19;;;;;;;21.92;7.63;;;;;;;;;;4975064;28;20179;-79
2024/01/02 04:17:45;;;;;;;17.15;5.82;;;;;;;;;;4993084;28;20046;-78
2024/01/02 04:20:11;;;;;;;17.58;6.15;;;;;;;;;;4972612;28;20042;-78
2024/01/02 04:22:39;;;;;;;15.55;6.10;;;;;;;;;;5000066;28;20056;-79
2024/01/02 04:25:05;;;;;;;14.82;6.28;;;;;;;;;;4972806;28;20069;-78
2024/01/02 04:27:31;;;;;;;13.00;6.45;;;;;;;;;;4980584;28;20041;-78
2024/01/02 04:29:57;;;;;;;14.95;6.22;;;;;;;;;;4994389;28;20045;-79
2024/01/02 04:32:23;;;;;;;11.30;5.45;;;;;;;;;;4974748;28;20152;-77
2024/01/02 04:34:49;;;;;;;10.38;5.82;;;;;;;;;;4960653;28;20034;-78
2024/01/02 04:37:15;;;;;;;15.13;6.22;;;;;;;;;;4994737;28;20041;-78
2024/01/02 04:39:42;;;;;;;15.30;5.20;;;;;;;;;;4977011;28;20041;-79
2024/01/02 04:42:08;;;;;;;17.38;6.15;;;;;;;;;;4990408;28;20046;-79
2024/01/02 04:44:34;;;;;;;14.30;5.38;;;;;;;;;;4961163;28;20568;-78
2024/01/02 04:47:00;;;;;;;16.90;5.75;;;;;;;;;;4974706;28;20512;-78
2024/01/02 04:49:26;;;;;;;11.15;5.53;;;;;;;;;;4960176;28;20123;-79
2024/01/02 04:51:52;;;;;;;15.63;5.85;;;;;;;;;;4972737;28;20048;-79
2024/01/02 04:54:18;;;;;;;13.20;5.00;;;;;;;;;;4972472;28;20053;-79
2024/01/02 04:56:44;;;;;;;12.00;5.72;;;;;;;;;;4974500;28;20041;-79
2024/01/02 04:59:10;;;;;;;10.18;5.00;;;;;;;;;;4974497;28;20050;-79
2024/01/02 05:01:37;;;;;;;11.98;5.05;;;;;;;;;;4970880;28;20095;-78
2024/01/02 05:04:04;;;;;;;8.75;4.43;;;;;;;;;;4987180;28;20466;-77
2024/01/02 05:06:31;;;;;;;17.35;5.55;;;;;;;;;;4971735;28;20075;-79
2024/01/02 05:08:57;;;;;;;14.60;4.88;;;;;;;;;;4973327;28;20125;-79
2024/01/02 05:11:23;;;;;;;10.57;4.78;;;;;;;;;;4977818;28;20472;-79
2024/01/02 05:13:49;;;;;;;13.23;4.60;;;;;;;;;;4990889;28;20124;-78
2024/01/02 05:16:15;;;;;;;7.95;4.18;;;;;;;;;;4983989;28;20057;-78
2024/01/02 05:18:41;;;;;;;10.25;4.43;;;;;;;;;;4975374;28;20192;-78
2024/01/02 05:21:07;;;;;;;17.17;5.47;;;;;;;;;;4974731;28;20038;-78
2024/01/02 05:23:34;;;;;;;10.02;4.03;;;;;;;;;;4972534;28;20101;-78
2024/01/02 05:26:00;;;;;;;14.43;4.57;;;;;;;;;;4989104;28;20212;-78
2024/01/02 05:28:26;;;;;;;10.88;4.07;;;;;;;;;;4980663;28;20491;-78
2024/01/02 05:30:52;;;;;;;8.30;3.85;;;;;;;;;;4974172;28;20057;-78
2024/01/02 05:33:18;;;;;;;8.73;3.92;;;;;;;;;;4988824;28;20618;-77
2024/01/02 05:35:45;;;;;;;20.23;4.00;;;;;;;;;;4992285;28;20042;-78
2024/01/02 05:38:11;;;;;;;5.55;2.85;;;;;;;;;;4957129;28;20049;-77
2024/01/02 05:40:37;;;;;;;10.52;3.47;;;;;;;;;;4994532;28;20063;-78
2024/01/02 05:43:03;;;;;;;12.82;3.50;;;;;;;;;;4992479;28;20485;-78
2024/01/02 05:45:29;;;;;;;9.43;3.20;;;;;;;;;;4970668;28;20042;-79
2024/01/02 05:47:55;;;;;;;10.25;4.03;;;;;;;;;;4987108;28;20044;-79
2024/01/02 05:50:21;;;;;;;8.00;3.25;;;;;;;;;;4974461;28;20054;-78
2024/01/02 05:52:47;;;;;;;10.30;3.05;;;;;;;;;;4992232;28;20042;-77
2024/01/02 05:55:13;;;;;;;10.38;3.85;;;;;;;;;;4976157;28;20501;-77
2024/01/02 05:57:39;;;;;;;8.20;3.20;;;;;;;;;;4988247;28;20063;-78
2024/01/02 06:00:06;;;;;;;6.22;2.80;;;;;;;;;;4961642;28;20046;-78
2024/01/02 06:02:32;;;;;;;6.32;3.65;;;;;;;;;;4987497;28;20069;-78
2024/01/02 06:04:58;;;;;;;10.82;3.65;;;;;;;;;;4958155;28;20872;-76
2024/01/02 06:07:24;;;;;;;10.20;3.00;;;;;;;;;;4976455;28;20452;-77
2024/01/02 06:09:50;;;;;;;7.70;2.85;;;;;;;;;;4972022;28;20413;-78
2024/01/02 06:12:16;;;;;;;9.75;3.38;;;;;;;;;;4978814;28;20065;-76
2024/01/02 06:14:42;;;;;;;7.43;2.70;;;;;;;;;;4973102;28;20034;-77
2024/01/02 06:17:08;;;;;;;10.18;3.25;;;;;;;;;;4986375;28;20064;-77
2024/01/02 06:19:35;;;;;;;7.53;2.95;;;;;;;;;;4973030;28;20042;-77
2024/01/02 06:22:02;;;;;;;7.78;2.92;;;;;;;;;;4987392;28;20502;-77
2024/01/02 06:24:28;;;;;;;7.00;3.20;;;;;;;;;;4974453;28;20046;-78
2024/01/02 06:26:54;;;;;;;10.32;3.95;;;;;;;;;;4983687;28;20046;-78
2024/01/02 06:29:21;;;;;;;6.28;3.50;;;;;;;;;;4985065;28;20053;-78
2024/01/02 06:31:47;;;;;;;9.63;3.40;;;;;;;;;;4956733;28;20045;-78
2024/01/02 06:34:13;;;;;;;8.38;3.80;;;;;;;;;;4987833;28;20029;-78
2024/01/02 06:36:39;;;;;;;6.97;3.33;;;;;;;;;;4986905;28;20531;-78
2024/01/02 06:39:05;;;;;;;7.07;3.08;;;;;;;;;;4983341;28;20493;-78
2024/01/02 06:41:31;;;;;;;5.97;3.88;;;;;;;;;;4985877;28;20045;-78
2024/01/02 06:43:57;;;;;;;5.35;3.60;;;;;;;;;;4970890;28;20080;-78
2024/01/02 06:46:23;;;;;;;6.63;3.55;;;;;;;;;;4980642;28;20041;-78
2024/01/02 06:48:49;;;;;;;7.35;3.22;;;;;;;;;;4989476;28;20072;-78
2024/01/02 06:51:16;;;;;;;5.75;3.50;;;;;;;;;;4956006;28;20644;-78
2024/01/02 06:53:42;;;;;;;6.90;2.72;;;;;;;;;;4970187;28;20049;-78
2024/01/02 06:56:09;;;;;;;2.92;2.35;;;;;;;;;;4970681;28;20047;-78
2024/01/02 06:58:36;;;;;;;6.07;2.47;;;;;;;;;;4990124;28;20500;-78
2024/01/02 07:01:02;;;;;;;3.55;2.15;;;;;;;;;;4965776;28;20038;-77
2024/01/02 07:03:28;;;;;;;5.40;2.42;;;;;;;;;;4973046;28;20413;-79
2024/01/02 07:05:54;;;;;;;3.92;2.80;;;;;;;;;;4974324;28;20095;-79
2024/01/02 07:08:21;;;;;;;5.40;2.25;;;;;;;;;;4991300;28;20034;-78
2024/01/02 07:10:47;;;;;;;5.45;2.30;;;;;;;;;;4992874;28;20060;-78
2024/01/02 07:13:13;;;;;;;2.30;2.10;;;;;;;;;;4971456;28;20030;-78
2024/01/02 07:15:40;;;;;;;4.88;3.00;;;;;;;;;;4977412;28;20038;-79
2024/01/02 07:18:06;;;;;;;3.00;2.38;;;;;;;;;;4974519;28;20084;-78
2024/01/02 07:20:32;;;;;;;5.93;3.38;;;;;;;;;;4975867;28;20690;-80
2024/01/02 07:22:58;;;;;;;3.80;3.40;;;;;;;;;;4975346;28;20568;-79
2024/01/02 07:25:24;;;;;;;5.13;3.63;;;;;;;;;;4991248;28;20049;-79
2024/01/02 07:27:50;;;;;;;8.98;4.22;;;;;;;;;;4977676;28;20618;-79
2024/01/02 07:30:16;;;;;;;4.63;3.05;;;;;;;;;;4972048;28;20043;-79
2024/01/02 07:32:42;;;;;;;4.32;3.58;;;;;;;;;;4973757;28;20042;-79
2024/01/02 07:35:08;;;;;;;5.80;3.50;;;;;;;;;;4989011;28;20045;-79
2024/01/02 07:37:34;;;;;;;6.07;3.63;;;;;;;;;;4991439;28;20045;-79
2024/01/02 07:40:00;;;;;;;7.82;4.95;;;;;;;;;;4978649;28;20044;-79
2024/01/02 07:42:28;;;;;;;6.80;6.10;;;;;;;;;;4972902;28;20449;-79
2024/01/02 07:44:54;;;;;;;10.25;6.38;;;;;;;;;;5008831;28;20405;-79
2024/01/02 07:47:20;;;;;;;7.30;4.45;;;;;;;;;;4959584;28;20460;-78
2024/01/02 07:49:46;;;;;;;4.75;2.88;;;;;;;;;;4955120;28;20169;-79
2024/01/02 07:52:13;;;;;;;3.20;2.60;;;;;;;;;;4979407;28;20405;-80
2024/01/02 07:54:39;;;;;;;2.60;2.40;;;;;;;;;;4976447;28;20058;-77
2024/01/02 07:57:05;;;;;;;7.00;2.80;;;;;;;;;;4986866;28;20420;-78
2024/01/02 07:59:31;;;;;;;2.78;2.58;;;;;;;;;;4952754;28;20077;-79
2024/01/02 08:01:58;;;;;;;3.33;2.40;;;;;;;;;;4951538;28;20554;-77
2024/01/02 08:04:24;;;;;;;1.70;1.60;;;;;;;;;;4981533;28;20045;-77
2024/01/02 08:06:50;;;;;;;1.33;1.23;;;;;;;;;;4982682;28;20404;-78
2024/01/02 08:09:16;;;;;;;2.50;1.50;;;;;;;;;;4976917;28;20042;-79
2024/01/02 08:11:42;;;;;;;2.22;2.00;;;;;;;;;;4992840;28;20037;-79
2024/01/02 08:14:14;;;;;;;3.05;1.50;;;;;;;;;;4966662;28;20042;-78
2024/01/02 08:16:40;;;;;;;1.30;1.20;;;;;;;;;;4953769;28;20042;-78
2024/01/02 08:19:07;;;;;;;1.98;1.75;;;;;;;;;;4975452;28;20505;-78
2024/01/02 08:21:34;;;;;;;3.75;1.75;;;;;;;;;;4976983;28;20532;-78
2024/01/02 08:24:00;;;;;;;2.30;1.70;;;;;;;;;;4972005;28;20128;-78
2024/01/02 08:26:26;;;;;;;1.85;1.67;;;;;;;;;;4981064;28;20893;-77
2024/01/02 08:28:53;;;;;;;1.67;1.58;;;;;;;;;;4972952;28;20682;-78
2024/01/02 08:31:19;;;;;;;2.35;1.80;;;;;;;;;;4970729;28;20061;-78
2024/01/02 08:33:45;;;;;;;4.25;2.15;;;;;;;;;;4971221;28;20034;-77
2024/01/02 08:36:12;;;;;;;2.95;2.30;;;;;;;;;;4954707;28;20132;-77
2024/01/02 08:38:40;;;;;;;2.55;2.17;;;;;;;;;;4979862;28;20487;-78
2024/01/02 08:41:07;;;;;;;3.78;2.75;;;;;;;;;;4984131;28;20083;-77
2024/01/02 08:43:33;;;;;;;4.18;3.00;;;;;;;;;;4970003;28;20044;-78
2024/01/02 08:45:59;;;;;;;5.05;3.25;;;;;;;;;;4990668;28;20037;-78
2024/01/02 08:48:25;;;;;;;4.32;3.45;;;;;;;;;;4974452;28;20042;-78
2024/01/02 08:50:51;;;;;;;6.05;3.55;;;;;;;;;;4989610;28;20034;-78
2024/01/02 08:53:17;;;;;;;5.78;3.88;;;;;;;;;;4993012;28;20054;-78
2024/01/02 08:55:43;;;;;;;4.38;3.28;;;;;;;;;;4975711;28;20049;-78
2024/01/02 08:58:12;;;;;;;7.05;3.55;;;;;;;;;;4992664;28;20038;-78
2024/01/02 09:00:38;;;;;;;6.38;3.92;;;;;;;;;;4973409;28;20046;-78
2024/01/02 09:03:04;;;;;;;4.90;3.47;;;;;;;;;;4990370;28;20038;-78
2024/01/02 09:05:31;;;;;;;7.78;4.30;;;;;;;;;;4970116;28;20134;-77
2024/01/02 09:07:58;;;;;;;7.05;4.50;;;;;;;;;;4960790;28;20049;-78
2024/01/02 09:10:25;;;;;;;7.10;4.63;;;;;;;;;;4971891;28;20116;-78
2024/01/02 09:12:51;;;;;;;7.03;5.10;;;;;;;;;;4985567;28;20029;-78
2024/01/02 09:15:17;;;;;;;7.30;4.80;;;;;;;;;;4990737;28;20083;-77
2024/01/02 09:17:43;;;;;;;8.95;5.32;;;;;;;;;;4955322;28;20488;-78
2024/01/02 09:20:11;;;;;;;10.20;5.75;;;;;;;;;;4974088;28;20057;-78
2024/01/02 09:22:37;;;;;;;12.18;5.95;;;;;;;;;;4992311;28;20049;-78
2024/01/02 09:25:03;;;;;;;10.98;5.30;;;;;;;;;;4975209;28;20111;-78
2024/01/02 09:27:30;;;;;;;10.90;5.80;;;;;;;;;;4991130;28;20067;-79
2024/01/02 09:29:58;;;;;;;12.40;6.20;;;;;;;;;;4989864;28;20046;-79
2024/01/02 09:32:24;;;;;;;15.65;7.55;;;;;;;;;;4969962;28;20038;-78
2024/01/02 09:34:51;;;;;;;14.25;7.45;;;;;;;;;;4982473;28;20060;-78
2024/01/02 09:37:17;;;;;;;17.13;8.52;;;;;;;;;;4969586;28;20074;-79
2024/01/02 09:39:44;;;;;;;17.77;7.22;;;;;;;;;;4974030;28;20046;-78
2024/01/02 09:42:16;;;;;;;15.38;7.10;;;;;;;;;;4968031;28;20045;-78
2024/01/02 09:45:01;;;;;;;18.05;7.90;;;;;;;;;;4984955;28;20053;-78
2024/01/02 09:47:53;;;;;;;18.92;9.10;;;;;;;;;;4990497;28;20121;-78
2024/01/02 09:50:19;;;;;;;19.55;7.65;;;;;;;;;;4951708;28;20086;-79
2024/01/02 09:52:45;;;;;;;22.27;8.82;;;;;;;;;;4989992;28;20034;-78
2024/01/02 09:55:11;;;;;;;17.75;7.90;;;;;;;;;;4987300;28;20120;-78
2024/01/02 09:57:44;;;;;;;17.92;7.72;;;;;;;;;;4989017;28;20050;-78
2024/01/02 10:00:17;;;;;;;19.90;7.32;;;;;;;;;;4966769;28;20052;-79
2024/01/02 10:02:51;;;;;;;21.67;7.63;;;;;;;;;;4988852;28;20113;-78
2024/01/02 10:05:26;;;;;;;24.58;8.20;;;;;;;;;;4972409;28;20038;-80
2024/01/02 10:08:10;;;;;;;19.58;7.38;;;;;;;;;;4970986;28;20045;-79
2024/01/02 10:10:41;;;;;;;18.33;8.13;;;;;;;;;;4989849;28;20046;-78
2024/01/02 10:13:10;;;;;;;16.30;7.90;;;;;;;;;;4974179;28;20034;-79
2024/01/02 10:15:52;;;;;;;22.35;7.88;;;;;;;;;;4971746;28;20042;-79
2024/01/02 10:18:36;;;;;;;20.02;7.90;;;;;;;;;;4986394;28;20039;-79
2024/01/02 10:21:05;;;;;;;24.75;7.70;;;;;;;;;;4987644;28;20084;-78
2024/01/02 10:23:35;;;;;;;19.80;7.25;;;;;;;;;;4973340;28;20037;-79
2024/01/02 10:26:05;;;;;;;27.73;8.30;;;;;;;;;;4976369;28;20119;-79
2024/01/02 10:28:34;;;;;;;25.33;8.52;;;;;;;;;;4974521;28;20087;-79
2024/01/02 10:31:12;;;;;;;16.80;6.28;;;;;;;;;;4969370;28;20041;-78
2024/01/02 10:33:39;;;;;;;27.45;7.88;;;;;;;;;;4964772;28;20053;-79
2024/01/02 10:36:09;;;;;;;27.55;7.90;;;;;;;;;;4972236;28;20097;-79
2024/01/02 10:38:42;;;;;;;26.48;6.07;;;;;;;;;;4967256;28;20473;-79
2024/01/02 10:41:27;;;;;;;18.17;4.80;;;;;;;;;;4991916;28;20503;-77
2024/01/02 10:44:00;;;;;;;23.13;4.43;;;;;;;;;;4990521;28;20077;-77
2024/01/02 10:46:35;;;;;;;20.25;4.63;;;;;;;;;;4972281;28;20408;-77
2024/01/02 10:49:10;;;;;;;29.08;4.90;;;;;;;;;;4970126;28;20048;-79
2024/01/02 10:51:37;;;;;;;26.40;4.65;;;;;;;;;;4988897;28;20042;-78
2024/01/02 10:54:05;;;;;;;26.58;4.38;;;;;;;;;;4986104;28;20045;-78
2024/01/02 10:56:50;;;;;;;23.88;4.20;;;;;;;;;;4970352;28;20132;-78
2024/01/02 10:59:35;;;;;;;25.80;4.32;;;;;;;;;;4976917;28;20038;-78
2024/01/02 11:02:22;;;;;;;26.10;4.50;;;;;;;;;;4986713;28;20073;-78
2024/01/02 11:05:01;;;;;;;23.08;4.15;;;;;;;;;;4975242;28;20137;-78
2024/01/02 11:07:36;;;;;;;25.73;4.03;;;;;;;;;;4973165;28;20046;-78
2024/01/02 11:10:08;;;;;;;30.55;5.50;;;;;;;;;;4969844;28;20045;-79
2024/01/02 11:12:54;;;;;;;28.55;5.93;;;;;;;;;;4971369;28;20052;-79
2024/01/02 11:15:22;;;;;;;24.00;3.45;;;;;;;;;;4973088;28;20030;-78
2024/01/02 11:17:52;;;;;;;36.13;6.25;;;;;;;;;;4973665;28;20100;-79
2024/01/02 11:20:20;;;;;;;31.05;6.15;;;;;;;;;;4989704;28;20513;-78
2024/01/02 11:22:59;;;;;;;34.78;5.47;;;;;;;;;;4972088;28;20060;-79
2024/01/02 11:25:29;;;;;;;30.75;4.32;;;;;;;;;;4971126;28;20135;-78
2024/01/02 11:27:55;;;;;;;20.85;4.32;;;;;;;;;;4973653;28;20040;-79
2024/01/02 11:30:22;;;;;;;31.40;4.22;;;;;;;;;;4972548;28;20045;-79
2024/01/02 11:33:07;;;;;;;29.67;5.40;;;;;;;;;;4994996;28;20040;-79
2024/01/02 11:35:41;;;;;;;30.13;5.32;;;;;;;;;;4971632;28;20034;-79
2024/01/02 11:38:09;;;;;;;38.15;4.75;;;;;;;;;;4987783;28;20046;-78
2024/01/02 11:40:55;;;;;;;28.58;4.10;;;;;;;;;;4985837;28;20046;-79
2024/01/02 11:43:41;;;;;;;28.50;4.90;;;;;;;;;;4982819;28;20038;-78
2024/01/02 11:46:08;;;;;;;31.10;4.70;;;;;;;;;;4970493;28;20053;-79
2024/01/02 11:48:37;;;;;;;24.40;4.15;;;;;;;;;;4967927;28;20042;-78
2024/01/02 11:51:09;;;;;;;31.45;4.78;;;;;;;;;;4972100;28;20072;-78
2024/01/02 11:53:54;;;;;;;27.92;5.35;;;;;;;;;;4975374;28;20132;-78
2024/01/02 11:56:21;;;;;;;33.88;4.03;;;;;;;;;;4973232;28;20116;-78
2024/01/02 11:58:57;;;;;;;21.58;3.67;;;;;;;;;;4988951;28;20481;-78
2024/01/02 12:01:29;;;;;;;26.63;3.90;;;;;;;;;;4972680;28;20452;-78
2024/01/02 12:04:13;;;;;;;20.67;3.97;;;;;;;;;;4971432;28;20428;-78
2024/01/02 12:06:51;;;;;;;37.45;7.90;;;;;;;;;;4988770;28;20559;-78
2024/01/02 12:09:18;;;;;;;32.42;9.10;;;;;;;;;;4988687;28;20501;-78
2024/01/02 12:11:50;;;;;;;47.03;13.00;;;;;;;;;;4991550;28;20045;-78
2024/01/02 12:14:31;;;;;;;43.55;11.57;;;;;;;;;;4988166;28;20446;-80
2024/01/02 12:17:01;;;;;;;55.20;16.10;;;;;;;;;;4987838;28;20038;-78
2024/01/02 12:19:28;;;;;;;64.80;16.80;;;;;;;;;;4989518;28;20104;-78
2024/01/02 12:21:55;;;;;;;54.03;17.00;;;;;;;;;;4974980;28;20132;-79
2024/01/02 12:24:21;;;;;;;59.78;17.05;;;;;;;;;;4986770;28;20046;-79
2024/01/02 12:26:52;;;;;;;50.70;15.90;;;;;;;;;;4981240;28;20170;-79
2024/01/02 12:29:28;;;;;;;52.63;16.50;;;;;;;;;;4975765;28;20038;-78
2024/01/02 12:31:57;;;;;;;62.97;16.50;;;;;;;;;;4969916;28;20034;-79
2024/01/02 12:34:33;;;;;;;50.00;14.30;;;;;;;;;;4976631;28;20508;-78
2024/01/02 12:37:09;;;;;;;52.22;13.68;;;;;;;;;;4973500;28;20045;-78
2024/01/02 12:39:39;;;;;;;50.33;14.10;;;;;;;;;;4994436;28;20519;-78
2024/01/02 12:42:08;;;;;;;54.33;13.90;;;;;;;;;;4975139;28;20120;-79
2024/01/02 12:44:37;;;;;;;53.80;13.05;;;;;;;;;;4997230;28;20056;-79
2024/01/02 12:47:09;;;;;;;46.03;10.43;;;;;;;;;;4989171;28;20526;-78
2024/01/02 12:49:40;;;;;;;50.80;9.45;;;;;;;;;;4984436;28;20038;-78
2024/01/02 12:52:08;;;;;;;38.53;8.65;;;;;;;;;;4974714;28;20108;-79
2024/01/02 12:54:36;;;;;;;31.50;6.93;;;;;;;;;;4971652;28;20176;-78
2024/01/02 12:57:03;;;;;;;37.20;8.13;;;;;;;;;;4974593;28;20053;-77
2024/01/02 12:59:31;;;;;;;31.48;6.60;;;;;;;;;;4975815;28;20115;-77
2024/01/02 13:01:58;;;;;;;32.53;6.97;;;;;;;;;;4986381;28;20196;-77
2024/01/02 13:04:27;;;;;;;30.23;6.03;;;;;;;;;;4978658;28;20081;-78
2024/01/02 13:06:53;;;;;;;33.65;5.47;;;;;;;;;;4994887;28;20092;-78
2024/01/02 13:09:19;;;;;;;30.63;5.47;;;;;;;;;;4959957;28;20144;-78
2024/01/02 13:11:47;;;;;;;41.97;7.13;;;;;;;;;;4989995;28;20038;-77
2024/01/02 13:14:13;;;;;;;38.63;7.47;;;;;;;;;;4977976;28;21938;-77
2024/01/02 13:16:39;;;;;;;34.17;6.40;;;;;;;;;;4961876;28;20045;-77
2024/01/02 13:19:05;;;;;;;34.67;7.13;;;;;;;;;;4975985;28;20499;-77
2024/01/02 13:21:31;;;;;;;40.08;7.50;;;;;;;;;;4977416;28;20073;-77
2024/01/02 13:23:59;;;;;;;36.25;6.68;;;;;;;;;;4975807;28;20045;-77
2024/01/02 13:26:40;;;;;;;25.73;6.35;;;;;;;;;;4975784;28;20481;-78
2024/01/02 13:29:10;;;;;;;30.08;4.78;;;;;;;;;;4976540;28;20045;-78
2024/01/02 13:31:37;;;;;;;33.75;5.50;;;;;;;;;;4979845;28;20038;-78
2024/01/02 13:34:07;;;;;;;35.45;6.18;;;;;;;;;;4976633;28;20045;-78
2024/01/02 13:36:33;;;;;;;44.53;7.30;;;;;;;;;;4979134;28;20121;-77
2024/01/02 13:38:59;;;;;;;34.17;5.35;;;;;;;;;;4977286;28;20084;-78
2024/01/02 13:41:28;;;;;;;32.58;4.90;;;;;;;;;;4977154;28;20045;-78
2024/01/02 13:44:07;;;;;;;34.95;5.85;;;;;;;;;;4973248;28;20042;-78
2024/01/02 13:46:33;;;;;;;45.60;6.38;;;;;;;;;;4976259;28;20100;-78
2024/01/02 13:48:59;;;;;;;35.08;5.63;;;;;;;;;;4977895;28;20081;-78
2024/01/02 13:51:32;;;;;;;41.55;7.68;;;;;;;;;;4993251;28;20041;-78
2024/01/02 13:54:01;;;;;;;36.43;5.87;;;;;;;;;;4977484;28;20463;-78
2024/01/02 13:56:29;;;;;;;34.65;6.53;;;;;;;;;;4978112;28;20080;-78
2024/01/02 13:58:57;;;;;;;30.55;5.50;;;;;;;;;;4991104;28;20038;-78
2024/01/02 14:01:36;;;;;;;40.75;5.35;;;;;;;;;;4972336;28;20064;-77
2024/01/02 14:04:03;;;;;;;31.25;4.50;;;;;;;;;;4987050;28;20080;-77
2024/01/02 14:06:39;;;;;;;28.65;5.15;;;;;;;;;;4987786;28;20512;-78
2024/01/02 14:09:08;;;;;;;40.88;6.05;;;;;;;;;;4973977;28;20111;-78
2024/01/02 14:11:35;;;;;;;43.30;5.78;;;;;;;;;;4972448;28;20448;-78
2024/01/02 14:14:11;;;;;;;38.85;7.07;;;;;;;;;;4964128;28;20077;-78
2024/01/02 14:16:38;;;;;;;49.13;6.80;;;;;;;;;;4990532;28;20053;-78
2024/01/02 14:19:04;;;;;;;41.78;9.65;;;;;;;;;;4959150;28;20041;-78
2024/01/02 14:21:31;;;;;;;34.67;6.28;;;;;;;;;;4980346;28;20129;-79
2024/01/02 14:24:14;;;;;;;38.67;7.68;;;;;;;;;;4973811;28;21983;-78
2024/01/02 14:26:43;;;;;;;47.45;8.50;;;;;;;;;;4977131;28;20037;-78
2024/01/02 14:29:13;;;;;;;45.50;7.90;;;;;;;;;;4975506;28;20041;-78
2024/01/02 14:31:43;;;;;;;45.75;9.02;;;;;;;;;;4990686;28;20385;-78
2024/01/02 14:34:15;;;;;;;48.03;8.55;;;;;;;;;;4974318;28;20037;-78
2024/01/02 14:36:54;;;;;;;49.28;10.02;;;;;;;;;;4973668;28;20073;-78
2024/01/02 14:39:41;;;;;;;44.85;8.68;;;;;;;;;;4989203;28;20046;-78